sensor_id;sensor_type;location;lat;lon;timestamp;pressure;altitude;pressure_sealevel;temperature;humidity
65227;BME280;51805;49.012;12.104;2024-01-30T00:00:58;99327.63;;;22.37;43.20
65227;BME280;51805;49.012;12.104;2024-01-30T00:03:24;99327.06;;;22.35;43.24
65227;BME280;51805;49.012;12.104;2024-01-30T00:05:49;99318.81;;;22.30;43.57
65227;BME280;51805;49.012;12.104;2024-01-30T00:08:14;99316.38;;;22.29;43.43
65227;BME280;51805;49.012;12.104;2024-01-30T00:10:40;99318.28;;;22.28;43.47
65227;BME280;51805;49.012;12.104;2024-01-30T00:13:05;99316.84;;;22.26;43.57
65227;BME280;51805;49.012;12.104;2024-01-30T00:15:30;99314.63;;;22.23;43.49
65227;BME280;51805;49.012;12.104;2024-01-30T00:17:55;99318.81;;;22.30;43.32
65227;BME280;51805;49.012;12.104;2024-01-30T00:20:21;99310.53;;;22.20;43.49
65227;BME280;51805;49.012;12.104;2024-01-30T00:22:46;99309.38;;;22.16;43.59
65227;BME280;51805;49.012;12.104;2024-01-30T00:25:11;99316.78;;;22.21;43.57
65227;BME280;51805;49.012;12.104;2024-01-30T00:27:37;99322.53;;;22.24;43.60
65227;BME280;51805;49.012;12.104;2024-01-30T00:30:02;99319.25;;;22.22;43.45
65227;BME280;51805;49.012;12.104;2024-01-30T00:32:27;99328.44;;;22.21;43.28
65227;BME280;51805;49.012;12.104;2024-01-30T00:34:53;99320.44;;;22.15;43.56
65227;BME280;51805;49.012;12.104;2024-01-30T00:37:18;99322.47;;;22.19;43.92
65227;BME280;51805;49.012;12.104;2024-01-30T00:39:43;99306.59;;;22.11;43.76
65227;BME280;51805;49.012;12.104;2024-01-30T00:42:09;99326.31;;;22.23;43.47
65227;BME280;51805;49.012;12.104;2024-01-30T00:44:37;99308.91;;;22.19;43.31
65227;BME280;51805;49.012;12.104;2024-01-30T00:47:02;99324.19;;;22.25;43.53
65227;BME280;51805;49.012;12.104;2024-01-30T00:49:27;99300.94;;;22.13;43.59
65227;BME280;51805;49.012;12.104;2024-01-30T00:51:53;99298.72;;;22.10;43.69
65227;BME280;51805;49.012;12.104;2024-01-30T00:54:18;99306.75;;;22.21;43.59
65227;BME280;51805;49.012;12.104;2024-01-30T00:56:43;99321.53;;;22.14;43.73
65227;BME280;51805;49.012;12.104;2024-01-30T00:59:09;99315.28;;;22.13;43.62
65227;BME280;51805;49.012;12.104;2024-01-30T01:01:34;99309.31;;;22.11;43.87
65227;BME280;51805;49.012;12.104;2024-01-30T01:03:59;99302.16;;;22.05;43.80
65227;BME280;51805;49.012;12.104;2024-01-30T01:06:24;99301.34;;;22.05;43.73
65227;BME280;51805;49.012;12.104;2024-01-30T01:08:50;99304.78;;;22.00;43.84
65227;BME280;51805;49.012;12.104;2024-01-30T01:11:15;99287.03;;;21.93;44.02
65227;BME280;51805;49.012;12.104;2024-01-30T01:13:40;99304.53;;;22.02;44.06
65227;BME280;51805;49.012;12.104;2024-01-30T01:16:05;99310.09;;;22.12;43.91
65227;BME280;51805;49.012;12.104;2024-01-30T01:18:31;99303.44;;;22.03;44.00
65227;BME280;51805;49.012;12.104;2024-01-30T01:20:56;99302.16;;;22.05;43.81
65227;BME280;51805;49.012;12.104;2024-01-30T01:23:21;99296.91;;;21.99;43.79
65227;BME280;51805;49.012;12.104;2024-01-30T01:25:47;99307.59;;;22.05;43.66
65227;BME280;51805;49.012;12.104;2024-01-30T01:28:12;99302.06;;;22.00;44.02
65227;BME280;51805;49.012;12.104;2024-01-30T01:30:37;99311.47;;;21.98;44.12
65227;BME280;51805;49.012;12.104;2024-01-30T01:33:02;99306.22;;;21.91;43.99
65227;BME280;51805;49.012;12.104;2024-01-30T01:35:28;99304.19;;;21.98;44.01
65227;BME280;51805;49.012;12.104;2024-01-30T01:37:54;99314.19;;;21.98;43.93
65227;BME280;51805;49.012;12.104;2024-01-30T01:40:19;99299.66;;;21.87;44.21
65227;BME280;51805;49.012;12.104;2024-01-30T01:42:44;99300.66;;;21.98;44.09
65227;BME280;51805;49.012;12.104;2024-01-30T01:45:10;99309.75;;;21.92;44.06
65227;BME280;51805;49.012;12.104;2024-01-30T01:47:35;99292.59;;;21.86;44.29
65227;BME280;51805;49.012;12.104;2024-01-30T01:50:00;99303.59;;;21.96;44.04
65227;BME280;51805;49.012;12.104;2024-01-30T01:52:26;99288.81;;;21.87;44.16
65227;BME280;51805;49.012;12.104;2024-01-30T01:54:51;99293.09;;;21.83;44.26
65227;BME280;51805;49.012;12.104;2024-01-30T01:57:17;99296.69;;;21.89;44.23
65227;BME280;51805;49.012;12.104;2024-01-30T01:59:42;99291.38;;;21.94;44.06
65227;BME280;51805;49.012;12.104;2024-01-30T02:02:11;99299.66;;;21.87;44.29
65227;BME280;51805;49.012;12.104;2024-01-30T02:04:36;99292.94;;;21.90;44.39
65227;BME280;51805;49.012;12.104;2024-01-30T02:07:01;99290.38;;;21.83;44.38
65227;BME280;51805;49.012;12.104;2024-01-30T02:09:27;99283.59;;;21.81;44.40
65227;BME280;51805;49.012;12.104;2024-01-30T02:11:52;99290.25;;;21.90;44.20
65227;BME280;51805;49.012;12.104;2024-01-30T02:14:17;99286.03;;;21.82;44.75
65227;BME280;51805;49.012;12.104;2024-01-30T02:16:42;99294.91;;;21.78;44.54
65227;BME280;51805;49.012;12.104;2024-01-30T02:19:08;99294.50;;;21.74;44.62
65227;BME280;51805;49.012;12.104;2024-01-30T02:21:33;99305.00;;;21.82;44.57
65227;BME280;51805;49.012;12.104;2024-01-30T02:23:59;99283.09;;;21.72;44.53
65227;BME280;51805;49.012;12.104;2024-01-30T02:26:25;99293.00;;;21.78;44.59
65227;BME280;51805;49.012;12.104;2024-01-30T02:28:50;99294.06;;;21.77;44.41
65227;BME280;51805;49.012;12.104;2024-01-30T02:31:15;99297.34;;;21.79;44.67
65227;BME280;51805;49.012;12.104;2024-01-30T02:33:40;99292.28;;;21.71;44.44
65227;BME280;51805;49.012;12.104;2024-01-30T02:36:06;99301.59;;;21.75;44.64
65227;BME280;51805;49.012;12.104;2024-01-30T02:38:31;99291.13;;;21.67;44.72
65227;BME280;51805;49.012;12.104;2024-01-30T02:40:56;99295.34;;;21.75;44.83
65227;BME280;51805;49.012;12.104;2024-01-30T02:43:22;99279.72;;;21.65;44.65
65227;BME280;51805;49.012;12.104;2024-01-30T02:45:47;99275.13;;;21.66;44.77
65227;BME280;51805;49.012;12.104;2024-01-30T02:48:13;99282.44;;;21.65;44.86
65227;BME280;51805;49.012;12.104;2024-01-30T02:50:38;99281.25;;;21.61;44.93
65227;BME280;51805;49.012;12.104;2024-01-30T02:53:03;99269.03;;;21.59;44.81
65227;BME280;51805;49.012;12.104;2024-01-30T02:55:29;99278.56;;;21.61;44.95
65227;BME280;51805;49.012;12.104;2024-01-30T02:57:54;99275.75;;;21.56;44.89
65227;BME280;51805;49.012;12.104;2024-01-30T03:00:19;99277.41;;;21.57;45.07
65227;BME280;51805;49.012;12.104;2024-01-30T03:02:45;99287.50;;;21.62;45.16
65227;BME280;51805;49.012;12.104;2024-01-30T03:05:10;99298.69;;;21.65;45.16
65227;BME280;51805;49.012;12.104;2024-01-30T03:07:35;99281.41;;;21.55;45.04
65227;BME280;51805;49.012;12.104;2024-01-30T03:10:01;99295.88;;;21.60;45.07
65227;BME280;51805;49.012;12.104;2024-01-30T03:12:26;99294.00;;;21.61;45.01
65227;BME280;51805;49.012;12.104;2024-01-30T03:14:51;99279.53;;;21.55;44.87
65227;BME280;51805;49.012;12.104;2024-01-30T03:17:17;99288.72;;;21.54;45.23
65227;BME280;51805;49.012;12.104;2024-01-30T03:19:42;99294.13;;;21.54;45.17
65227;BME280;51805;49.012;12.104;2024-01-30T03:22:07;99295.28;;;21.58;44.98
65227;BME280;51805;49.012;12.104;2024-01-30T03:24:33;99284.59;;;21.52;45.09
65227;BME280;51805;49.012;12.104;2024-01-30T03:26:58;99289.75;;;21.53;45.18
65227;BME280;51805;49.012;12.104;2024-01-30T03:29:23;99299.78;;;21.53;45.16
65227;BME280;51805;49.012;12.104;2024-01-30T03:31:49;99287.34;;;21.40;45.16
65227;BME280;51805;49.012;12.104;2024-01-30T03:34:14;99311.88;;;21.50;45.35
65227;BME280;51805;49.012;12.104;2024-01-30T03:36:39;99308.94;;;21.52;45.28
65227;BME280;51805;49.012;12.104;2024-01-30T03:39:05;99301.78;;;21.45;45.34
65227;BME280;51805;49.012;12.104;2024-01-30T03:41:30;99288.97;;;21.41;45.24
65227;BME280;51805;49.012;12.104;2024-01-30T03:43:55;99287.59;;;21.38;45.36
65227;BME280;51805;49.012;12.104;2024-01-30T03:46:20;99300.50;;;21.48;45.17
65227;BME280;51805;49.012;12.104;2024-01-30T03:48:46;99273.03;;;21.28;45.42
65227;BME280;51805;49.012;12.104;2024-01-30T03:51:11;99310.47;;;21.48;45.31
65227;BME280;51805;49.012;12.104;2024-01-30T03:53:36;99299.31;;;21.44;45.51
65227;BME280;51805;49.012;12.104;2024-01-30T03:56:02;99294.50;;;21.46;45.16
65227;BME280;51805;49.012;12.104;2024-01-30T03:58:27;99289.09;;;21.34;45.40
65227;BME280;51805;49.012;12.104;2024-01-30T04:00:52;99291.13;;;21.39;45.35
65227;BME280;51805;49.012;12.104;2024-01-30T04:03:18;99287.22;;;21.35;45.41
65227;BME280;51805;49.012;12.104;2024-01-30T04:05:43;99297.56;;;21.38;45.49
65227;BME280;51805;49.012;12.104;2024-01-30T04:08:09;99298.50;;;21.43;45.36
65227;BME280;51805;49.012;12.104;2024-01-30T04:10:34;99300.63;;;21.41;45.37
65227;BME280;51805;49.012;12.104;2024-01-30T04:13:00;99287.13;;;21.30;45.40
65227;BME280;51805;49.012;12.104;2024-01-30T04:15:25;99282.06;;;21.33;45.26
65227;BME280;51805;49.012;12.104;2024-01-30T04:17:51;99299.13;;;21.34;45.33
65227;BME280;51805;49.012;12.104;2024-01-30T04:20:16;99313.22;;;21.36;45.50
65227;BME280;51805;49.012;12.104;2024-01-30T04:22:46;99302.31;;;21.31;45.53
65227;BME280;51805;49.012;12.104;2024-01-30T04:25:12;99293.00;;;21.27;45.66
65227;BME280;51805;49.012;12.104;2024-01-30T04:27:38;99290.88;;;21.40;44.96
65227;BME280;51805;49.012;12.104;2024-01-30T04:30:03;99294.13;;;21.54;44.74
65227;BME280;51805;49.012;12.104;2024-01-30T04:32:29;99280.34;;;21.56;44.75
65227;BME280;51805;49.012;12.104;2024-01-30T04:34:54;99310.75;;;21.74;44.74
65227;BME280;51805;49.012;12.104;2024-01-30T04:37:19;99295.00;;;21.71;44.80
65227;BME280;51805;49.012;12.104;2024-01-30T04:39:45;99288.75;;;21.71;44.68
65227;BME280;51805;49.012;12.104;2024-01-30T04:42:10;99296.19;;;21.75;44.80
65227;BME280;51805;49.012;12.104;2024-01-30T04:44:35;99286.78;;;21.66;44.85
65227;BME280;51805;49.012;12.104;2024-01-30T04:47:00;99288.41;;;21.67;44.81
65227;BME280;51805;49.012;12.104;2024-01-30T04:49:26;99294.66;;;21.68;44.88
65227;BME280;51805;49.012;12.104;2024-01-30T04:51:51;99286.66;;;21.61;44.95
65227;BME280;51805;49.012;12.104;2024-01-30T04:54:16;99276.47;;;21.52;44.82
65227;BME280;51805;49.012;12.104;2024-01-30T04:56:42;99291.59;;;21.64;44.86
65227;BME280;51805;49.012;12.104;2024-01-30T04:59:07;99298.09;;;21.63;44.70
65227;BME280;51805;49.012;12.104;2024-01-30T05:01:32;99293.25;;;21.65;45.00
65227;BME280;51805;49.012;12.104;2024-01-30T05:03:57;99285.63;;;21.62;44.96
65227;BME280;51805;49.012;12.104;2024-01-30T05:06:26;99290.22;;;21.62;45.05
65227;BME280;51805;49.012;12.104;2024-01-30T05:08:52;99302.28;;;21.71;44.84
65227;BME280;51805;49.012;12.104;2024-01-30T05:11:17;99281.03;;;21.63;44.79
65227;BME280;51805;49.012;12.104;2024-01-30T05:13:43;99291.72;;;21.69;44.94
65227;BME280;51805;49.012;12.104;2024-01-30T05:16:08;99283.97;;;21.61;44.98
65227;BME280;51805;49.012;12.104;2024-01-30T05:18:33;99264.94;;;21.56;44.86
65227;BME280;51805;49.012;12.104;2024-01-30T05:20:58;99296.03;;;21.70;45.08
65227;BME280;51805;49.012;12.104;2024-01-30T05:23:24;99275.38;;;21.64;44.97
65227;BME280;51805;49.012;12.104;2024-01-30T05:25:49;99290.31;;;21.67;44.88
65227;BME280;51805;49.012;12.104;2024-01-30T05:28:14;99283.81;;;21.68;44.99
65227;BME280;51805;49.012;12.104;2024-01-30T05:30:40;99289.25;;;21.68;45.03
65227;BME280;51805;49.012;12.104;2024-01-30T05:33:05;99279.16;;;21.63;45.00
65227;BME280;51805;49.012;12.104;2024-01-30T05:35:30;99292.84;;;21.73;44.88
65227;BME280;51805;49.012;12.104;2024-01-30T05:37:55;99285.69;;;21.67;45.20
65227;BME280;51805;49.012;12.104;2024-01-30T05:40:21;99275.72;;;21.68;45.10
65227;BME280;51805;49.012;12.104;2024-01-30T05:42:46;99290.75;;;21.75;44.90
65227;BME280;51805;49.012;12.104;2024-01-30T05:45:11;99286.63;;;21.73;44.72
65227;BME280;51805;49.012;12.104;2024-01-30T05:47:36;99289.59;;;21.71;45.00
65227;BME280;51805;49.012;12.104;2024-01-30T05:50:02;99269.16;;;21.64;44.91
65227;BME280;51805;49.012;12.104;2024-01-30T05:52:27;99293.47;;;21.75;44.86
65227;BME280;51805;49.012;12.104;2024-01-30T05:54:52;99260.81;;;21.54;44.87
65227;BME280;51805;49.012;12.104;2024-01-30T05:57:18;99291.69;;;21.81;44.76
65227;BME280;51805;49.012;12.104;2024-01-30T05:59:45;99250.94;;;21.59;44.95
65227;BME280;51805;49.012;12.104;2024-01-30T06:02:11;99286.19;;;21.76;44.76
65227;BME280;51805;49.012;12.104;2024-01-30T06:04:36;99292.75;;;21.80;44.75
65227;BME280;51805;49.012;12.104;2024-01-30T06:07:01;99290.88;;;21.80;44.85
65227;BME280;51805;49.012;12.104;2024-01-30T06:09:27;99300.13;;;21.84;44.74
65227;BME280;51805;49.012;12.104;2024-01-30T06:11:52;99302.78;;;21.79;44.69
65227;BME280;51805;49.012;12.104;2024-01-30T06:14:18;99297.59;;;21.78;44.72
65227;BME280;51805;49.012;12.104;2024-01-30T06:16:43;99313.00;;;21.77;44.83
65227;BME280;51805;49.012;12.104;2024-01-30T06:19:08;99286.13;;;21.59;45.13
65227;BME280;51805;49.012;12.104;2024-01-30T06:21:33;99310.88;;;21.68;44.99
65227;BME280;51805;49.012;12.104;2024-01-30T06:23:59;99319.69;;;21.75;45.03
65227;BME280;51805;49.012;12.104;2024-01-30T06:26:24;99338.13;;;21.89;44.97
65227;BME280;51805;49.012;12.104;2024-01-30T06:28:49;99318.28;;;21.72;44.92
65227;BME280;51805;49.012;12.104;2024-01-30T06:31:15;99308.53;;;21.71;45.05
65227;BME280;51805;49.012;12.104;2024-01-30T06:33:40;99339.94;;;21.84;45.02
65227;BME280;51805;49.012;12.104;2024-01-30T06:36:05;99330.72;;;21.73;45.11
65227;BME280;51805;49.012;12.104;2024-01-30T06:38:31;99334.81;;;21.59;45.22
65227;BME280;51805;49.012;12.104;2024-01-30T06:40:56;99331.50;;;21.57;45.43
65227;BME280;51805;49.012;12.104;2024-01-30T06:43:22;99339.75;;;21.62;45.39
65227;BME280;51805;49.012;12.104;2024-01-30T06:45:47;99332.56;;;21.56;45.55
65227;BME280;51805;49.012;12.104;2024-01-30T06:48:12;99329.84;;;21.56;45.47
65227;BME280;51805;49.012;12.104;2024-01-30T06:50:38;99335.63;;;21.60;45.57
65227;BME280;51805;49.012;12.104;2024-01-30T06:53:03;99326.00;;;21.52;45.37
65227;BME280;51805;49.012;12.104;2024-01-30T06:55:28;99316.38;;;21.44;45.36
65227;BME280;51805;49.012;12.104;2024-01-30T06:57:54;99335.25;;;21.56;45.33
65227;BME280;51805;49.012;12.104;2024-01-30T07:00:19;99329.41;;;21.59;45.46
65227;BME280;51805;49.012;12.104;2024-01-30T07:02:45;99343.47;;;21.61;45.51
65227;BME280;51805;49.012;12.104;2024-01-30T07:05:10;99321.19;;;21.54;45.36
65227;BME280;51805;49.012;12.104;2024-01-30T07:07:35;99326.59;;;21.54;45.29
65227;BME280;51805;49.012;12.104;2024-01-30T07:10:00;99330.44;;;21.58;45.36
65227;BME280;51805;49.012;12.104;2024-01-30T07:12:26;99348.03;;;21.72;46.34
65227;BME280;51805;49.012;12.104;2024-01-30T07:14:51;99305.56;;;21.44;47.17
65227;BME280;51805;49.012;12.104;2024-01-30T07:17:17;99326.69;;;21.59;46.97
65227;BME280;51805;49.012;12.104;2024-01-30T07:19:42;99346.53;;;21.76;46.85
65227;BME280;51805;49.012;12.104;2024-01-30T07:22:08;99342.03;;;21.70;46.57
65227;BME280;51805;49.012;12.104;2024-01-30T07:24:33;99344.25;;;21.73;46.49
65227;BME280;51805;49.012;12.104;2024-01-30T07:26:58;99318.09;;;21.62;46.34
65227;BME280;51805;49.012;12.104;2024-01-30T07:29:23;99347.94;;;21.79;46.28
65227;BME280;51805;49.012;12.104;2024-01-30T07:31:49;99347.69;;;21.80;46.21
65227;BME280;51805;49.012;12.104;2024-01-30T07:34:14;99337.22;;;21.72;45.77
65227;BME280;51805;49.012;12.104;2024-01-30T07:36:39;99339.59;;;21.80;45.68
65227;BME280;51805;49.012;12.104;2024-01-30T07:39:05;99350.34;;;21.92;45.52
65227;BME280;51805;49.012;12.104;2024-01-30T07:41:30;99350.50;;;21.85;45.57
65227;BME280;51805;49.012;12.104;2024-01-30T07:43:55;99350.09;;;21.93;45.43
65227;BME280;51805;49.012;12.104;2024-01-30T07:46:20;99336.03;;;21.80;45.41
65227;BME280;51805;49.012;12.104;2024-01-30T07:48:46;99350.59;;;21.90;45.33
65227;BME280;51805;49.012;12.104;2024-01-30T07:51:11;99345.09;;;21.85;45.17
65227;BME280;51805;49.012;12.104;2024-01-30T07:53:36;99363.84;;;22.03;45.16
65227;BME280;51805;49.012;12.104;2024-01-30T07:56:02;99348.19;;;22.05;44.76
65227;BME280;51805;49.012;12.104;2024-01-30T07:58:27;99352.63;;;22.11;44.63
65227;BME280;51805;49.012;12.104;2024-01-30T08:00:52;99351.91;;;22.16;44.57
65227;BME280;51805;49.012;12.104;2024-01-30T08:03:18;99357.88;;;22.18;44.53
65227;BME280;51805;49.012;12.104;2024-01-30T08:05:43;99364.38;;;22.17;44.39
65227;BME280;51805;49.012;12.104;2024-01-30T08:08:08;99370.06;;;22.32;44.12
65227;BME280;51805;49.012;12.104;2024-01-30T08:10:33;99359.38;;;22.25;44.37
65227;BME280;51805;49.012;12.104;2024-01-30T08:12:59;99371.97;;;22.31;44.25
65227;BME280;51805;49.012;12.104;2024-01-30T08:15:24;99376.41;;;22.37;43.93
65227;BME280;51805;49.012;12.104;2024-01-30T08:17:49;99367.34;;;22.32;43.99
65227;BME280;51805;49.012;12.104;2024-01-30T08:20:15;99370.16;;;22.37;44.03
65227;BME280;51805;49.012;12.104;2024-01-30T08:22:40;99364.13;;;22.35;43.82
65227;BME280;51805;49.012;12.104;2024-01-30T08:25:06;99344.03;;;22.14;43.74
65227;BME280;51805;49.012;12.104;2024-01-30T08:27:32;99245.13;;;21.67;43.67
65227;BME280;51805;49.012;12.104;2024-01-30T08:30:07;99321.88;;;22.17;43.77
65227;BME280;51805;49.012;12.104;2024-01-30T08:32:33;99309.22;;;22.06;43.71
65227;BME280;51805;49.012;12.104;2024-01-30T08:34:59;99306.41;;;22.01;43.70
65227;BME280;51805;49.012;12.104;2024-01-30T08:37:24;99349.81;;;22.34;43.74
65227;BME280;51805;49.012;12.104;2024-01-30T08:40:09;99333.59;;;22.23;43.64
65227;BME280;51805;49.012;12.104;2024-01-30T08:42:34;99338.97;;;22.34;43.48
65227;BME280;51805;49.012;12.104;2024-01-30T08:44:59;99348.81;;;22.40;43.41
65227;BME280;51805;49.012;12.104;2024-01-30T08:47:25;99354.31;;;22.45;43.61
65227;BME280;51805;49.012;12.104;2024-01-30T08:49:50;99355.38;;;22.44;43.50
65227;BME280;51805;49.012;12.104;2024-01-30T08:52:15;99297.50;;;22.17;43.36
65227;BME280;51805;49.012;12.104;2024-01-30T08:54:40;99369.44;;;22.58;43.25
65227;BME280;51805;49.012;12.104;2024-01-30T08:57:06;99369.19;;;22.59;43.27
65227;BME280;51805;49.012;12.104;2024-01-30T08:59:31;99347.84;;;22.46;43.26
65227;BME280;51805;49.012;12.104;2024-01-30T09:01:56;99337.50;;;22.43;43.25
65227;BME280;51805;49.012;12.104;2024-01-30T09:04:22;99356.41;;;22.55;43.14
65227;BME280;51805;49.012;12.104;2024-01-30T09:06:48;99371.75;;;22.66;43.27
65227;BME280;51805;49.012;12.104;2024-01-30T09:09:13;99373.66;;;22.65;43.15
65227;BME280;51805;49.012;12.104;2024-01-30T09:11:39;99369.88;;;22.66;42.92
65227;BME280;51805;49.012;12.104;2024-01-30T09:14:04;99380.22;;;22.69;43.30
65227;BME280;51805;49.012;12.104;2024-01-30T09:16:29;99376.44;;;22.70;42.98
65227;BME280;51805;49.012;12.104;2024-01-30T09:18:54;99368.50;;;22.64;43.07
65227;BME280;51805;49.012;12.104;2024-01-30T09:21:20;99378.66;;;22.73;43.05
65227;BME280;51805;49.012;12.104;2024-01-30T09:23:45;99353.44;;;22.56;43.02
65227;BME280;51805;49.012;12.104;2024-01-30T09:26:10;99360.03;;;22.60;43.09
65227;BME280;51805;49.012;12.104;2024-01-30T09:28:36;99317.84;;;22.36;42.92
65227;BME280;51805;49.012;12.104;2024-01-30T09:31:01;99363.88;;;22.64;42.99
65227;BME280;51805;49.012;12.104;2024-01-30T09:33:26;99353.44;;;22.56;43.17
65227;BME280;51805;49.012;12.104;2024-01-30T09:35:51;99305.28;;;22.30;42.93
65227;BME280;51805;49.012;12.104;2024-01-30T09:38:17;99293.16;;;22.33;42.91
65227;BME280;51805;49.012;12.104;2024-01-30T09:40:42;99315.22;;;22.41;42.84
65227;BME280;51805;49.012;12.104;2024-01-30T09:43:08;99328.88;;;22.46;42.81
65227;BME280;51805;49.012;12.104;2024-01-30T09:45:34;99372.81;;;22.81;42.72
65227;BME280;51805;49.012;12.104;2024-01-30T09:48:00;99374.66;;;22.76;42.79
65227;BME280;51805;49.012;12.104;2024-01-30T09:50:26;99365.69;;;22.75;42.70
65227;BME280;51805;49.012;12.104;2024-01-30T09:52:53;99369.78;;;22.78;42.60
65227;BME280;51805;49.012;12.104;2024-01-30T09:55:20;99349.03;;;22.67;42.70
65227;BME280;51805;49.012;12.104;2024-01-30T09:57:45;99380.22;;;22.86;42.72
65227;BME280;51805;49.012;12.104;2024-01-30T10:00:11;99308.75;;;22.42;42.64
65227;BME280;51805;49.012;12.104;2024-01-30T10:02:38;99303.00;;;22.39;42.82
65227;BME280;51805;49.012;12.104;2024-01-30T10:05:03;99367.31;;;22.76;43.00
65227;BME280;51805;49.012;12.104;2024-01-30T10:07:28;99385.97;;;22.89;42.50
65227;BME280;51805;49.012;12.104;2024-01-30T10:09:54;99346.06;;;22.68;42.43
65227;BME280;51805;49.012;12.104;2024-01-30T10:12:19;99337.84;;;22.63;42.70
65227;BME280;51805;49.012;12.104;2024-01-30T10:14:44;99373.00;;;22.91;42.35
65227;BME280;51805;49.012;12.104;2024-01-30T10:17:11;99319.28;;;22.55;42.50
65227;BME280;51805;49.012;12.104;2024-01-30T10:19:40;99374.63;;;22.92;42.40
65227;BME280;51805;49.012;12.104;2024-01-30T10:22:05;99269.84;;;22.32;42.37
65227;BME280;51805;49.012;12.104;2024-01-30T10:24:32;99290.34;;;22.44;42.35
65227;BME280;51805;49.012;12.104;2024-01-30T10:27:01;99249.16;;;22.26;42.40
65227;BME280;51805;49.012;12.104;2024-01-30T10:29:27;99286.84;;;22.44;42.28
65227;BME280;51805;49.012;12.104;2024-01-30T10:31:59;99329.31;;;22.71;42.39
65227;BME280;51805;49.012;12.104;2024-01-30T10:34:25;99348.34;;;22.76;42.33
65227;BME280;51805;49.012;12.104;2024-01-30T10:37:10;99310.09;;;22.56;42.44
65227;BME280;51805;49.012;12.104;2024-01-30T10:39:39;99339.91;;;22.73;42.36
65227;BME280;51805;49.012;12.104;2024-01-30T10:42:05;99358.22;;;22.82;42.44
65227;BME280;51805;49.012;12.104;2024-01-30T10:44:37;99317.31;;;22.67;42.37
65227;BME280;51805;49.012;12.104;2024-01-30T10:47:06;99343.50;;;22.78;42.71
65227;BME280;51805;49.012;12.104;2024-01-30T10:49:36;99337.34;;;22.66;42.50
65227;BME280;51805;49.012;12.104;2024-01-30T10:52:03;99337.94;;;22.68;42.52
65227;BME280;51805;49.012;12.104;2024-01-30T10:54:31;99328.16;;;22.67;42.69
65227;BME280;51805;49.012;12.104;2024-01-30T10:57:00;99331.03;;;22.77;42.59
65227;BME280;51805;49.012;12.104;2024-01-30T10:59:25;99321.19;;;22.71;42.73
65227;BME280;51805;49.012;12.104;2024-01-30T11:01:51;99309.91;;;22.63;42.72
65227;BME280;51805;49.012;12.104;2024-01-30T11:04:17;99332.56;;;22.73;42.85
65227;BME280;51805;49.012;12.104;2024-01-30T11:06:42;99292.06;;;22.50;42.55
65227;BME280;51805;49.012;12.104;2024-01-30T11:09:11;99329.63;;;22.75;42.69
65227;BME280;51805;49.012;12.104;2024-01-30T11:12:12;99307.63;;;22.55;42.90
65227;BME280;51805;49.012;12.104;2024-01-30T11:14:37;99313.56;;;22.68;42.52
65227;BME280;51805;49.012;12.104;2024-01-30T11:17:03;99207.47;;;22.10;42.68
65227;BME280;51805;49.012;12.104;2024-01-30T11:19:31;99308.63;;;22.65;42.64
65227;BME280;51805;49.012;12.104;2024-01-30T11:21:56;99271.97;;;22.46;42.54
65227;BME280;51805;49.012;12.104;2024-01-30T11:24:22;99237.66;;;22.35;42.54
65227;BME280;51805;49.012;12.104;2024-01-30T11:26:55;99257.34;;;22.47;42.50
65227;BME280;51805;49.012;12.104;2024-01-30T11:29:27;99188.47;;;22.05;42.50
65227;BME280;51805;49.012;12.104;2024-01-30T11:31:57;99306.22;;;22.85;42.36
65227;BME280;51805;49.012;12.104;2024-01-30T11:34:26;99226.84;;;22.35;42.46
65227;BME280;51805;49.012;12.104;2024-01-30T11:36:53;99270.09;;;22.63;42.25
65227;BME280;51805;49.012;12.104;2024-01-30T11:39:20;99309.56;;;22.92;42.30
65227;BME280;51805;49.012;12.104;2024-01-30T11:41:49;99311.69;;;22.90;42.38
65227;BME280;51805;49.012;12.104;2024-01-30T11:44:16;99263.69;;;22.69;42.38
65227;BME280;51805;49.012;12.104;2024-01-30T11:46:41;99294.28;;;22.86;42.69
65227;BME280;51805;49.012;12.104;2024-01-30T11:49:07;99272.66;;;22.70;42.46
65227;BME280;51805;49.012;12.104;2024-01-30T11:51:32;99239.13;;;22.59;42.45
65227;BME280;51805;49.012;12.104;2024-01-30T11:53:58;99261.84;;;22.75;42.49
65227;BME280;51805;49.012;12.104;2024-01-30T11:56:24;99284.53;;;22.85;42.06
65227;BME280;51805;49.012;12.104;2024-01-30T11:58:49;99260.81;;;22.76;42.22
65227;BME280;51805;49.012;12.104;2024-01-30T12:01:16;99252.44;;;22.77;42.24
65227;BME280;51805;49.012;12.104;2024-01-30T12:03:42;99196.63;;;22.43;42.02
65227;BME280;51805;49.012;12.104;2024-01-30T12:06:07;99217.78;;;22.63;42.13
65227;BME280;51805;49.012;12.104;2024-01-30T12:08:33;99263.22;;;22.94;42.21
65227;BME280;51805;49.012;12.104;2024-01-30T12:10:58;99244.84;;;22.79;42.33
65227;BME280;51805;49.012;12.104;2024-01-30T12:13:23;99150.28;;;22.23;42.21
65227;BME280;51805;49.012;12.104;2024-01-30T12:15:51;99199.31;;;22.60;42.11
65227;BME280;51805;49.012;12.104;2024-01-30T12:18:19;99216.25;;;22.67;42.21
65227;BME280;51805;49.012;12.104;2024-01-30T12:20:45;99189.00;;;22.40;42.18
65227;BME280;51805;49.012;12.104;2024-01-30T12:23:11;99158.47;;;22.28;42.23
65227;BME280;51805;49.012;12.104;2024-01-30T12:25:37;99194.31;;;22.52;42.31
65227;BME280;51805;49.012;12.104;2024-01-30T12:28:03;99159.88;;;22.31;42.17
65227;BME280;51805;49.012;12.104;2024-01-30T12:30:28;99154.94;;;22.28;42.47
65227;BME280;51805;49.012;12.104;2024-01-30T12:32:54;99267.97;;;23.03;42.29
65227;BME280;51805;49.012;12.104;2024-01-30T12:35:20;99266.81;;;22.99;42.47
65227;BME280;51805;49.012;12.104;2024-01-30T12:37:47;99224.75;;;22.75;42.52
65227;BME280;51805;49.012;12.104;2024-01-30T12:40:17;99174.13;;;22.43;42.50
65227;BME280;51805;49.012;12.104;2024-01-30T12:42:46;99147.19;;;22.36;42.46